sensor_id;sensor_type;location;lat;lon;timestamp;P1;durP1;ratioP1;P2;durP2;ratioP2
74926;SDS011;63488;48.092;-1.640;2023-02-15T00:01:19;23.20;;;17.55;;
74926;SDS011;63488;48.092;-1.640;2023-02-15T00:03:47;24.85;;;18.23;;
74926;SDS011;63488;48.092;-1.640;2023-02-15T00:06:12;23.80;;;17.75;;
74926;SDS011;63488;48.092;-1.640;2023-02-15T00:08:37;26.48;;;18.45;;
74926;SDS011;63488;48.092;-1.640;2023-02-15T00:11:06;24.73;;;17.92;;
74926;SDS011;63488;48.092;-1.640;2023-02-15T00:13:32;23.45;;;17.10;;
74926;SDS011;63488;48.092;-1.640;2023-02-15T00:16:04;25.80;;;18.25;;
74926;SDS011;63488;48.092;-1.640;2023-02-15T00:18:30;23.35;;;17.25;;
74926;SDS011;63488;48.092;-1.640;2023-02-15T00:20:55;25.33;;;17.17;;
74926;SDS011;63488;48.092;-1.640;2023-02-15T00:23:21;23.63;;;17.10;;
74926;SDS011;63488;48.092;-1.640;2023-02-15T00:25:46;22.50;;;16.85;;
74926;SDS011;63488;48.092;-1.640;2023-02-15T00:28:11;22.73;;;16.25;;
74926;SDS011;63488;48.092;-1.640;2023-02-15T00:30:37;22.85;;;16.23;;
74926;SDS011;63488;48.092;-1.640;2023-02-15T00:33:02;23.88;;;16.65;;
74926;SDS011;63488;48.092;-1.640;2023-02-15T00:35:27;21.35;;;16.52;;
74926;SDS011;63488;48.092;-1.640;2023-02-15T00:37:53;25.73;;;18.45;;
74926;SDS011;63488;48.092;-1.640;2023-02-15T00:40:18;22.80;;;16.88;;
74926;SDS011;63488;48.092;-1.640;2023-02-15T00:42:43;24.17;;;17.55;;
74926;SDS011;63488;48.092;-1.640;2023-02-15T00:45:09;21.85;;;16.48;;
74926;SDS011;63488;48.092;-1.640;2023-02-15T00:47:34;22.30;;;16.60;;
74926;SDS011;63488;48.092;-1.640;2023-02-15T00:49:59;24.13;;;16.92;;
74926;SDS011;63488;48.092;-1.640;2023-02-15T00:52:25;24.25;;;16.50;;
74926;SDS011;63488;48.092;-1.640;2023-02-15T00:54:50;23.42;;;16.13;;
74926;SDS011;63488;48.092;-1.640;2023-02-15T00:57:15;22.38;;;16.52;;
74926;SDS011;63488;48.092;-1.640;2023-02-15T00:59:41;22.48;;;16.75;;
74926;SDS011;63488;48.092;-1.640;2023-02-15T01:02:06;23.92;;;16.58;;
74926;SDS011;63488;48.092;-1.640;2023-02-15T01:04:31;22.27;;;16.80;;
74926;SDS011;63488;48.092;-1.640;2023-02-15T01:06:57;22.17;;;16.17;;
74926;SDS011;63488;48.092;-1.640;2023-02-15T01:09:22;22.48;;;16.13;;
74926;SDS011;63488;48.092;-1.640;2023-02-15T01:11:47;21.25;;;16.38;;
74926;SDS011;63488;48.092;-1.640;2023-02-15T01:14:13;20.17;;;15.63;;
74926;SDS011;63488;48.092;-1.640;2023-02-15T01:16:39;21.20;;;16.48;;
74926;SDS011;63488;48.092;-1.640;2023-02-15T01:19:04;21.63;;;16.20;;
74926;SDS011;63488;48.092;-1.640;2023-02-15T01:21:31;23.65;;;16.63;;
74926;SDS011;63488;48.092;-1.640;2023-02-15T01:23:59;22.08;;;16.65;;
74926;SDS011;63488;48.092;-1.640;2023-02-15T01:26:24;20.55;;;15.57;;
74926;SDS011;63488;48.092;-1.640;2023-02-15T01:28:50;22.60;;;15.82;;
74926;SDS011;63488;48.092;-1.640;2023-02-15T01:31:16;23.13;;;15.88;;
74926;SDS011;63488;48.092;-1.640;2023-02-15T01:33:42;21.13;;;15.73;;
74926;SDS011;63488;48.092;-1.640;2023-02-15T01:36:07;18.70;;;14.68;;
74926;SDS011;63488;48.092;-1.640;2023-02-15T01:38:33;23.00;;;15.82;;
74926;SDS011;63488;48.092;-1.640;2023-02-15T01:40:58;20.63;;;15.90;;
74926;SDS011;63488;48.092;-1.640;2023-02-15T01:43:43;21.30;;;15.73;;
74926;SDS011;63488;48.092;-1.640;2023-02-15T01:46:09;21.23;;;15.45;;
74926;SDS011;63488;48.092;-1.640;2023-02-15T01:48:35;21.88;;;16.40;;
74926;SDS011;63488;48.092;-1.640;2023-02-15T01:51:05;21.80;;;16.05;;
74926;SDS011;63488;48.092;-1.640;2023-02-15T01:53:32;21.98;;;15.73;;
74926;SDS011;63488;48.092;-1.640;2023-02-15T01:55:59;20.63;;;15.52;;
74926;SDS011;63488;48.092;-1.640;2023-02-15T01:58:27;21.45;;;15.60;;
74926;SDS011;63488;48.092;-1.640;2023-02-15T02:00:54;21.55;;;15.55;;
74926;SDS011;63488;48.092;-1.640;2023-02-15T02:03:22;21.67;;;16.25;;
74926;SDS011;63488;48.092;-1.640;2023-02-15T02:05:51;23.08;;;16.05;;
74926;SDS011;63488;48.092;-1.640;2023-02-15T02:08:17;21.83;;;15.65;;
74926;SDS011;63488;48.092;-1.640;2023-02-15T02:10:42;21.92;;;16.20;;
74926;SDS011;63488;48.092;-1.640;2023-02-15T02:13:08;21.05;;;15.45;;
74926;SDS011;63488;48.092;-1.640;2023-02-15T02:15:37;20.25;;;14.85;;
74926;SDS011;63488;48.092;-1.640;2023-02-15T02:18:26;21.13;;;15.55;;
74926;SDS011;63488;48.092;-1.640;2023-02-15T02:34:01;22.80;;;16.20;;
74926;SDS011;63488;48.092;-1.640;2023-02-15T02:43:46;23.75;;;16.73;;
74926;SDS011;63488;48.092;-1.640;2023-02-15T02:46:24;20.95;;;15.77;;
74926;SDS011;63488;48.092;-1.640;2023-02-15T02:48:51;21.83;;;16.13;;
74926;SDS011;63488;48.092;-1.640;2023-02-15T02:51:17;22.55;;;16.17;;
74926;SDS011;63488;48.092;-1.640;2023-02-15T02:53:47;21.42;;;15.52;;
74926;SDS011;63488;48.092;-1.640;2023-02-15T02:56:17;22.73;;;16.17;;
74926;SDS011;63488;48.092;-1.640;2023-02-15T02:59:03;24.40;;;16.35;;
74926;SDS011;63488;48.092;-1.640;2023-02-15T03:01:44;20.63;;;15.50;;
74926;SDS011;63488;48.092;-1.640;2023-02-15T03:04:31;20.25;;;15.15;;
74926;SDS011;63488;48.092;-1.640;2023-02-15T03:06:58;22.08;;;15.57;;
74926;SDS011;63488;48.092;-1.640;2023-02-15T03:09:28;23.55;;;16.42;;
74926;SDS011;63488;48.092;-1.640;2023-02-15T03:12:06;20.50;;;15.63;;
74926;SDS011;63488;48.092;-1.640;2023-02-15T03:14:32;19.23;;;15.00;;
74926;SDS011;63488;48.092;-1.640;2023-02-15T03:16:58;19.90;;;15.02;;
74926;SDS011;63488;48.092;-1.640;2023-02-15T03:19:24;23.52;;;15.98;;
74926;SDS011;63488;48.092;-1.640;2023-02-15T03:21:51;21.13;;;16.08;;
74926;SDS011;63488;48.092;-1.640;2023-02-15T03:24:43;20.52;;;15.75;;
74926;SDS011;63488;48.092;-1.640;2023-02-15T03:27:10;22.30;;;15.60;;
74926;SDS011;63488;48.092;-1.640;2023-02-15T03:29:36;22.20;;;16.33;;
74926;SDS011;63488;48.092;-1.640;2023-02-15T03:32:02;24.23;;;16.45;;
74926;SDS011;63488;48.092;-1.640;2023-02-15T03:34:30;23.52;;;16.27;;
74926;SDS011;63488;48.092;-1.640;2023-02-15T03:37:07;25.52;;;15.85;;
74926;SDS011;63488;48.092;-1.640;2023-02-15T03:39:35;20.20;;;15.60;;
74926;SDS011;63488;48.092;-1.640;2023-02-15T03:42:11;21.63;;;15.95;;
74926;SDS011;63488;48.092;-1.640;2023-02-15T03:44:58;20.27;;;16.00;;
74926;SDS011;63488;48.092;-1.640;2023-02-15T03:47:43;20.90;;;15.48;;
74926;SDS011;63488;48.092;-1.640;2023-02-15T03:50:13;21.92;;;15.85;;
74926;SDS011;63488;48.092;-1.640;2023-02-15T03:53:05;20.67;;;16.05;;
74926;SDS011;63488;48.092;-1.640;2023-02-15T03:55:31;21.13;;;15.90;;
74926;SDS011;63488;48.092;-1.640;2023-02-15T03:57:56;20.95;;;15.43;;
74926;SDS011;63488;48.092;-1.640;2023-02-15T04:00:41;21.65;;;15.32;;
74926;SDS011;63488;48.092;-1.640;2023-02-15T04:05:59;22.35;;;16.27;;
74926;SDS011;63488;48.092;-1.640;2023-02-15T04:08:26;21.45;;;15.63;;
74926;SDS011;63488;48.092;-1.640;2023-02-15T04:11:11;20.60;;;16.38;;
74926;SDS011;63488;48.092;-1.640;2023-02-15T04:13:36;22.25;;;15.43;;
74926;SDS011;63488;48.092;-1.640;2023-02-15T04:16:02;21.40;;;15.55;;
74926;SDS011;63488;48.092;-1.640;2023-02-15T04:18:34;20.13;;;14.93;;
74926;SDS011;63488;48.092;-1.640;2023-02-15T04:21:18;20.33;;;14.10;;
74926;SDS011;63488;48.092;-1.640;2023-02-15T04:24:02;21.27;;;14.98;;
74926;SDS011;63488;48.092;-1.640;2023-02-15T04:26:46;23.48;;;15.60;;
74926;SDS011;63488;48.092;-1.640;2023-02-15T04:29:13;19.65;;;14.23;;
74926;SDS011;63488;48.092;-1.640;2023-02-15T04:31:39;19.42;;;14.68;;
74926;SDS011;63488;48.092;-1.640;2023-02-15T04:34:04;21.42;;;15.35;;
74926;SDS011;63488;48.092;-1.640;2023-02-15T04:36:29;20.02;;;14.48;;
74926;SDS011;63488;48.092;-1.640;2023-02-15T04:38:55;21.58;;;14.90;;
74926;SDS011;63488;48.092;-1.640;2023-02-15T04:41:20;20.02;;;15.05;;
74926;SDS011;63488;48.092;-1.640;2023-02-15T04:43:45;19.80;;;14.50;;
74926;SDS011;63488;48.092;-1.640;2023-02-15T04:46:11;21.20;;;15.35;;
74926;SDS011;63488;48.092;-1.640;2023-02-15T04:48:36;19.25;;;14.70;;
74926;SDS011;63488;48.092;-1.640;2023-02-15T04:51:08;18.60;;;14.32;;
74926;SDS011;63488;48.092;-1.640;2023-02-15T04:53:34;19.92;;;14.43;;
74926;SDS011;63488;48.092;-1.640;2023-02-15T04:56:00;18.77;;;14.30;;
74926;SDS011;63488;48.092;-1.640;2023-02-15T04:58:25;19.98;;;14.65;;
74926;SDS011;63488;48.092;-1.640;2023-02-15T05:00:51;19.10;;;14.75;;
74926;SDS011;63488;48.092;-1.640;2023-02-15T05:03:19;21.13;;;15.13;;
74926;SDS011;63488;48.092;-1.640;2023-02-15T05:05:45;22.08;;;14.65;;
74926;SDS011;63488;48.092;-1.640;2023-02-15T05:08:10;21.42;;;14.75;;
74926;SDS011;63488;48.092;-1.640;2023-02-15T05:10:35;19.55;;;14.70;;
74926;SDS011;63488;48.092;-1.640;2023-02-15T05:13:01;22.08;;;14.35;;
74926;SDS011;63488;48.092;-1.640;2023-02-15T05:15:26;17.70;;;14.10;;
74926;SDS011;63488;48.092;-1.640;2023-02-15T05:17:51;20.33;;;15.05;;
74926;SDS011;63488;48.092;-1.640;2023-02-15T05:20:17;20.30;;;14.40;;
74926;SDS011;63488;48.092;-1.640;2023-02-15T05:22:43;21.85;;;14.35;;
74926;SDS011;63488;48.092;-1.640;2023-02-15T05:25:09;22.05;;;13.95;;
74926;SDS011;63488;48.092;-1.640;2023-02-15T05:27:52;23.67;;;14.32;;
74926;SDS011;63488;48.092;-1.640;2023-02-15T05:30:36;19.80;;;13.65;;
74926;SDS011;63488;48.092;-1.640;2023-02-15T05:33:02;19.83;;;14.73;;
74926;SDS011;63488;48.092;-1.640;2023-02-15T05:35:27;21.45;;;15.65;;
74926;SDS011;63488;48.092;-1.640;2023-02-15T05:37:53;19.90;;;14.13;;
74926;SDS011;63488;48.092;-1.640;2023-02-15T05:40:18;19.23;;;13.93;;
74926;SDS011;63488;48.092;-1.640;2023-02-15T05:42:43;19.98;;;13.88;;
74926;SDS011;63488;48.092;-1.640;2023-02-15T05:45:09;17.17;;;14.02;;
74926;SDS011;63488;48.092;-1.640;2023-02-15T05:47:34;20.05;;;13.68;;
74926;SDS011;63488;48.092;-1.640;2023-02-15T05:50:00;19.85;;;14.40;;
74926;SDS011;63488;48.092;-1.640;2023-02-15T05:52:25;17.83;;;13.43;;
74926;SDS011;63488;48.092;-1.640;2023-02-15T05:54:50;17.75;;;13.88;;
74926;SDS011;63488;48.092;-1.640;2023-02-15T05:57:16;20.02;;;14.05;;
74926;SDS011;63488;48.092;-1.640;2023-02-15T05:59:41;18.25;;;13.18;;
74926;SDS011;63488;48.092;-1.640;2023-02-15T06:02:06;19.42;;;13.52;;
74926;SDS011;63488;48.092;-1.640;2023-02-15T06:04:32;17.55;;;13.45;;
74926;SDS011;63488;48.092;-1.640;2023-02-15T06:06:57;20.13;;;14.55;;
74926;SDS011;63488;48.092;-1.640;2023-02-15T06:09:22;19.55;;;14.75;;
74926;SDS011;63488;48.092;-1.640;2023-02-15T06:11:48;22.70;;;15.15;;
74926;SDS011;63488;48.092;-1.640;2023-02-15T06:14:13;18.40;;;14.38;;
74926;SDS011;63488;48.092;-1.640;2023-02-15T06:16:38;15.90;;;11.60;;
74926;SDS011;63488;48.092;-1.640;2023-02-15T06:19:04;15.75;;;11.40;;
74926;SDS011;63488;48.092;-1.640;2023-02-15T06:21:30;15.27;;;11.25;;
74926;SDS011;63488;48.092;-1.640;2023-02-15T06:23:55;15.05;;;10.98;;
74926;SDS011;63488;48.092;-1.640;2023-02-15T06:26:21;20.17;;;12.50;;
74926;SDS011;63488;48.092;-1.640;2023-02-15T06:28:46;16.80;;;12.25;;
74926;SDS011;63488;48.092;-1.640;2023-02-15T06:31:11;18.30;;;12.48;;
74926;SDS011;63488;48.092;-1.640;2023-02-15T06:33:37;19.17;;;12.82;;
74926;SDS011;63488;48.092;-1.640;2023-02-15T06:36:03;18.98;;;12.63;;
74926;SDS011;63488;48.092;-1.640;2023-02-15T06:38:28;18.60;;;12.30;;
74926;SDS011;63488;48.092;-1.640;2023-02-15T06:40:54;17.58;;;12.70;;
74926;SDS011;63488;48.092;-1.640;2023-02-15T06:43:19;22.45;;;14.02;;
74926;SDS011;63488;48.092;-1.640;2023-02-15T06:45:45;20.23;;;13.38;;
74926;SDS011;63488;48.092;-1.640;2023-02-15T06:48:10;17.92;;;12.48;;
74926;SDS011;63488;48.092;-1.640;2023-02-15T06:50:36;23.05;;;15.70;;
74926;SDS011;63488;48.092;-1.640;2023-02-15T06:53:01;23.15;;;15.88;;
74926;SDS011;63488;48.092;-1.640;2023-02-15T06:55:27;24.20;;;16.15;;
74926;SDS011;63488;48.092;-1.640;2023-02-15T06:57:52;21.05;;;15.52;;
74926;SDS011;63488;48.092;-1.640;2023-02-15T07:00:18;24.33;;;15.75;;
74926;SDS011;63488;48.092;-1.640;2023-02-15T07:02:43;24.25;;;15.77;;
74926;SDS011;63488;48.092;-1.640;2023-02-15T07:05:09;24.70;;;15.20;;
74926;SDS011;63488;48.092;-1.640;2023-02-15T07:07:34;20.60;;;14.85;;
74926;SDS011;63488;48.092;-1.640;2023-02-15T07:10:00;21.80;;;15.20;;
74926;SDS011;63488;48.092;-1.640;2023-02-15T07:12:25;20.88;;;14.10;;
74926;SDS011;63488;48.092;-1.640;2023-02-15T07:15:06;20.55;;;14.35;;
74926;SDS011;63488;48.092;-1.640;2023-02-15T07:17:32;18.92;;;13.75;;
74926;SDS011;63488;48.092;-1.640;2023-02-15T07:19:58;20.48;;;14.32;;
74926;SDS011;63488;48.092;-1.640;2023-02-15T07:22:23;19.58;;;14.52;;
74926;SDS011;63488;48.092;-1.640;2023-02-15T07:24:48;19.15;;;14.18;;
74926;SDS011;63488;48.092;-1.640;2023-02-15T07:27:14;18.55;;;14.52;;
74926;SDS011;63488;48.092;-1.640;2023-02-15T07:29:39;20.85;;;13.93;;
74926;SDS011;63488;48.092;-1.640;2023-02-15T07:32:05;18.38;;;13.32;;
74926;SDS011;63488;48.092;-1.640;2023-02-15T07:34:30;21.08;;;14.35;;
74926;SDS011;63488;48.092;-1.640;2023-02-15T07:36:55;20.20;;;14.20;;
74926;SDS011;63488;48.092;-1.640;2023-02-15T07:39:21;19.40;;;13.20;;
74926;SDS011;63488;48.092;-1.640;2023-02-15T07:41:46;18.20;;;14.23;;
74926;SDS011;63488;48.092;-1.640;2023-02-15T07:44:12;19.50;;;14.25;;
74926;SDS011;63488;48.092;-1.640;2023-02-15T07:46:38;20.55;;;14.73;;
74926;SDS011;63488;48.092;-1.640;2023-02-15T07:49:04;19.85;;;14.23;;
74926;SDS011;63488;48.092;-1.640;2023-02-15T07:51:29;20.02;;;14.13;;
74926;SDS011;63488;48.092;-1.640;2023-02-15T07:53:54;19.80;;;15.18;;
74926;SDS011;63488;48.092;-1.640;2023-02-15T07:56:20;21.10;;;13.88;;
74926;SDS011;63488;48.092;-1.640;2023-02-15T07:58:45;22.48;;;13.73;;
74926;SDS011;63488;48.092;-1.640;2023-02-15T08:01:20;21.80;;;14.45;;
74926;SDS011;63488;48.092;-1.640;2023-02-15T08:03:46;20.87;;;14.80;;
74926;SDS011;63488;48.092;-1.640;2023-02-15T08:06:11;23.05;;;14.80;;
74926;SDS011;63488;48.092;-1.640;2023-02-15T08:08:38;23.88;;;15.02;;
74926;SDS011;63488;48.092;-1.640;2023-02-15T08:11:17;21.02;;;14.85;;
74926;SDS011;63488;48.092;-1.640;2023-02-15T08:16:31;19.45;;;13.57;;
74926;SDS011;63488;48.092;-1.640;2023-02-15T08:18:57;21.42;;;14.57;;
74926;SDS011;63488;48.092;-1.640;2023-02-15T08:21:23;19.08;;;14.55;;
74926;SDS011;63488;48.092;-1.640;2023-02-15T08:23:49;23.23;;;15.07;;
74926;SDS011;63488;48.092;-1.640;2023-02-15T08:26:15;28.42;;;15.00;;
74926;SDS011;63488;48.092;-1.640;2023-02-15T08:28:42;27.65;;;14.38;;
74926;SDS011;63488;48.092;-1.640;2023-02-15T08:31:08;18.75;;;14.02;;
74926;SDS011;63488;48.092;-1.640;2023-02-15T08:33:34;22.83;;;14.15;;
74926;SDS011;63488;48.092;-1.640;2023-02-15T08:36:03;24.63;;;15.85;;
74926;SDS011;63488;48.092;-1.640;2023-02-15T08:38:29;23.23;;;15.30;;
74926;SDS011;63488;48.092;-1.640;2023-02-15T08:40:56;19.45;;;14.73;;
74926;SDS011;63488;48.092;-1.640;2023-02-15T08:43:43;20.75;;;14.10;;
74926;SDS011;63488;48.092;-1.640;2023-02-15T08:46:10;20.00;;;14.57;;
74926;SDS011;63488;48.092;-1.640;2023-02-15T08:48:40;22.42;;;15.02;;
74926;SDS011;63488;48.092;-1.640;2023-02-15T08:51:12;21.35;;;14.73;;
74926;SDS011;63488;48.092;-1.640;2023-02-15T08:53:39;25.45;;;14.18;;
74926;SDS011;63488;48.092;-1.640;2023-02-15T08:56:05;20.83;;;14.52;;
74926;SDS011;63488;48.092;-1.640;2023-02-15T08:58:31;20.83;;;14.30;;
74926;SDS011;63488;48.092;-1.640;2023-02-15T09:01:20;21.65;;;15.50;;
74926;SDS011;63488;48.092;-1.640;2023-02-15T09:03:49;20.83;;;14.38;;
74926;SDS011;63488;48.092;-1.640;2023-02-15T09:09:08;20.65;;;14.35;;
74926;SDS011;63488;48.092;-1.640;2023-02-15T09:11:36;19.85;;;14.70;;
74926;SDS011;63488;48.092;-1.640;2023-02-15T09:14:07;21.90;;;15.43;;
74926;SDS011;63488;48.092;-1.640;2023-02-15T09:16:35;20.85;;;15.00;;
74926;SDS011;63488;48.092;-1.640;2023-02-15T09:19:17;21.98;;;14.52;;
74926;SDS011;63488;48.092;-1.640;2023-02-15T09:21:43;21.95;;;14.57;;
74926;SDS011;63488;48.092;-1.640;2023-02-15T09:24:10;21.67;;;15.13;;
74926;SDS011;63488;48.092;-1.640;2023-02-15T09:26:42;18.95;;;13.23;;
74926;SDS011;63488;48.092;-1.640;2023-02-15T09:29:08;16.95;;;13.35;;
74926;SDS011;63488;48.092;-1.640;2023-02-15T09:31:39;17.90;;;14.02;;
74926;SDS011;63488;48.092;-1.640;2023-02-15T09:34:07;19.00;;;14.07;;
74926;SDS011;63488;48.092;-1.640;2023-02-15T09:36:34;17.73;;;12.95;;
74926;SDS011;63488;48.092;-1.640;2023-02-15T09:39:08;19.35;;;13.80;;
74926;SDS011;63488;48.092;-1.640;2023-02-15T09:44:14;18.30;;;12.02;;
74926;SDS011;63488;48.092;-1.640;2023-02-15T09:53:03;17.92;;;12.73;;
74926;SDS011;63488;48.092;-1.640;2023-02-15T10:05:12;18.77;;;12.98;;
74926;SDS011;63488;48.092;-1.640;2023-02-15T10:07:51;19.27;;;13.82;;
74926;SDS011;63488;48.092;-1.640;2023-02-15T10:13:13;16.60;;;13.02;;
74926;SDS011;63488;48.092;-1.640;2023-02-15T10:15:47;17.35;;;12.82;;
74926;SDS011;63488;48.092;-1.640;2023-02-15T10:21:14;18.80;;;13.40;;
74926;SDS011;63488;48.092;-1.640;2023-02-15T10:26:22;15.25;;;11.63;;
74926;SDS011;63488;48.092;-1.640;2023-02-15T10:28:52;15.68;;;11.95;;
74926;SDS011;63488;48.092;-1.640;2023-02-15T10:33:46;16.48;;;11.95;;
74926;SDS011;63488;48.092;-1.640;2023-02-15T10:41:17;15.90;;;12.73;;
74926;SDS011;63488;48.092;-1.640;2023-02-15T10:46:42;18.77;;;13.77;;
74926;SDS011;63488;48.092;-1.640;2023-02-15T10:49:30;19.17;;;13.82;;
74926;SDS011;63488;48.092;-1.640;2023-02-15T10:52:19;19.08;;;13.60;;
74926;SDS011;63488;48.092;-1.640;2023-02-15T10:54:55;19.23;;;13.90;;
74926;SDS011;63488;48.092;-1.640;2023-02-15T10:58:16;17.03;;;13.93;;
74926;SDS011;63488;48.092;-1.640;2023-02-15T11:00:21;21.23;;;14.75;;
74926;SDS011;63488;48.092;-1.640;2023-02-15T11:08:20;20.95;;;14.13;;
74926;SDS011;63488;48.092;-1.640;2023-02-15T11:11:01;17.58;;;13.60;;
74926;SDS011;63488;48.092;-1.640;2023-02-15T11:13:29;19.10;;;14.55;;
74926;SDS011;63488;48.092;-1.640;2023-02-15T11:16:06;18.45;;;13.40;;
74926;SDS011;63488;48.092;-1.640;2023-02-15T11:18:34;13.93;;;11.50;;
74926;SDS011;63488;48.092;-1.640;2023-02-15T11:21:05;19.05;;;13.65;;
74926;SDS011;63488;48.092;-1.640;2023-02-15T11:23:32;17.48;;;14.18;;
74926;SDS011;63488;48.092;-1.640;2023-02-15T11:26:00;17.50;;;14.10;;
74926;SDS011;63488;48.092;-1.640;2023-02-15T11:28:34;19.05;;;14.52;;
74926;SDS011;63488;48.092;-1.640;2023-02-15T11:31:10;18.02;;;13.27;;
74926;SDS011;63488;48.092;-1.640;2023-02-15T11:33:43;19.38;;;14.07;;
74926;SDS011;63488;48.092;-1.640;2023-02-15T11:36:13;19.23;;;12.88;;
74926;SDS011;63488;48.092;-1.640;2023-02-15T11:38:43;14.52;;;11.90;;
74926;SDS011;63488;48.092;-1.640;2023-02-15T11:41:13;17.08;;;12.70;;
74926;SDS011;63488;48.092;-1.640;2023-02-15T11:43:43;15.00;;;12.00;;
74926;SDS011;63488;48.092;-1.640;2023-02-15T11:46:13;16.38;;;12.32;;
74926;SDS011;63488;48.092;-1.640;2023-02-15T11:48:41;18.10;;;12.45;;
74926;SDS011;63488;48.092;-1.640;2023-02-15T11:51:21;15.75;;;11.77;;
74926;SDS011;63488;48.092;-1.640;2023-02-15T11:53:47;19.15;;;12.93;;
74926;SDS011;63488;48.092;-1.640;2023-02-15T11:56:16;18.88;;;12.73;;
74926;SDS011;63488;48.092;-1.640;2023-02-15T12:06:11;20.25;;;12.48;;
74926;SDS011;63488;48.092;-1.640;2023-02-15T12:08:38;15.13;;;11.87;;
74926;SDS011;63488;48.092;-1.640;2023-02-15T12:11:09;13.70;;;10.45;;
74926;SDS011;63488;48.092;-1.640;2023-02-15T12:13:55;17.38;;;11.65;;
74926;SDS011;63488;48.092;-1.640;2023-02-15T12:16:21;14.50;;;11.10;;
74926;SDS011;63488;48.092;-1.640;2023-02-15T12:18:47;14.45;;;11.25;;
74926;SDS011;63488;48.092;-1.640;2023-02-15T12:23:43;15.20;;;10.80;;
74926;SDS011;63488;48.092;-1.640;2023-02-15T12:26:12;16.83;;;11.45;;
74926;SDS011;63488;48.092;-1.640;2023-02-15T12:28:41;14.65;;;12.07;;
74926;SDS011;63488;48.092;-1.640;2023-02-15T12:31:54;15.38;;;11.45;;
74926;SDS011;63488;48.092;-1.640;2023-02-15T12:33:55;14.77;;;10.63;;
74926;SDS011;63488;48.092;-1.640;2023-02-15T12:36:24;14.85;;;11.23;;
74926;SDS011;63488;48.092;-1.640;2023-02-15T12:41:27;14.18;;;11.68;;
74926;SDS011;63488;48.092;-1.640;2023-02-15T12:46:36;17.80;;;10.55;;
74926;SDS011;63488;48.092;-1.640;2023-02-15T12:49:05;16.63;;;11.82;;
74926;SDS011;63488;48.092;-1.640;2023-02-15T12:51:42;17.50;;;11.35;;
74926;SDS011;63488;48.092;-1.640;2023-02-15T12:57:14;15.88;;;12.38;;
74926;SDS011;63488;48.092;-1.640;2023-02-15T12:59:50;14.82;;;11.82;;
74926;SDS011;63488;48.092;-1.640;2023-02-15T13:02:19;17.17;;;12.07;;
74926;SDS011;63488;48.092;-1.640;2023-02-15T13:04:50;16.02;;;11.38;;
74926;SDS011;63488;48.092;-1.640;2023-02-15T13:07:15;12.98;;;10.48;;
74926;SDS011;63488;48.092;-1.640;2023-02-15T13:09:40;17.25;;;11.73;;
74926;SDS011;63488;48.092;-1.640;2023-02-15T13:14:47;19.15;;;11.60;;
74926;SDS011;63488;48.092;-1.640;2023-02-15T13:17:15;14.25;;;10.98;;
74926;SDS011;63488;48.092;-1.640;2023-02-15T13:19:44;14.10;;;10.52;;
74926;SDS011;63488;48.092;-1.640;2023-02-15T13:22:13;17.63;;;12.05;;
74926;SDS011;63488;48.092;-1.640;2023-02-15T13:24:41;17.60;;;11.65;;
74926;SDS011;63488;48.092;-1.640;2023-02-15T13:27:16;14.60;;;10.57;;
74926;SDS011;63488;48.092;-1.640;2023-02-15T13:29:46;14.95;;;11.27;;
74926;SDS011;63488;48.092;-1.640;2023-02-15T13:34:39;16.85;;;12.25;;
74926;SDS011;63488;48.092;-1.640;2023-02-15T13:42:26;14.82;;;9.82;;
74926;SDS011;63488;48.092;-1.640;2023-02-15T13:50:33;15.02;;;11.40;;
74926;SDS011;63488;48.092;-1.640;2023-02-15T13:55:38;15.32;;;10.25;;
74926;SDS011;63488;48.092;-1.640;2023-02-15T13:58:27;18.27;;;11.10;;
74926;SDS011;63488;48.092;-1.640;2023-02-15T14:01:08;14.38;;;10.77;;
74926;SDS011;63488;48.092;-1.640;2023-02-15T14:11:39;17.10;;;10.73;;
74926;SDS011;63488;48.092;-1.640;2023-02-15T14:22:30;15.77;;;10.40;;
74926;SDS011;63488;48.092;-1.640;2023-02-15T14:25:05;17.52;;;13.35;;
74926;SDS011;63488;48.092;-1.640;2023-02-15T14:30:18;14.95;;;12.00;;
74926;SDS011;63488;48.092;-1.640;2023-02-15T14:32:46;32.15;;;11.85;;
74926;SDS011;63488;48.092;-1.640;2023-02-15T14:35:17;14.75;;;10.93;;
74926;SDS011;63488;48.092;-1.640;2023-02-15T14:37:45;15.45;;;11.85;;
74926;SDS011;63488;48.092;-1.640;2023-02-15T14:45:53;12.75;;;10.40;;
74926;SDS011;63488;48.092;-1.640;2023-02-15T14:51:04;13.50;;;10.32;;
74926;SDS011;63488;48.092;-1.640;2023-02-15T15:01:15;12.77;;;9.70;;
74926;SDS011;63488;48.092;-1.640;2023-02-15T15:03:47;14.93;;;10.30;;
74926;SDS011;63488;48.092;-1.640;2023-02-15T15:06:27;12.55;;;9.20;;
74926;SDS011;63488;48.092;-1.640;2023-02-15T15:09:19;14.60;;;10.75;;
74926;SDS011;63488;48.092;-1.640;2023-02-15T15:11:43;11.68;;;9.00;;
74926;SDS011;63488;48.092;-1.640;2023-02-15T15:14:10;13.35;;;9.93;;
74926;SDS011;63488;48.092;-1.640;2023-02-15T15:19:01;14.15;;;9.75;;
74926;SDS011;63488;48.092;-1.640;2023-02-15T15:22:12;13.80;;;9.75;;
74926;SDS011;63488;48.092;-1.640;2023-02-15T15:29:40;15.25;;;10.18;;
74926;SDS011;63488;48.092;-1.640;2023-02-15T15:32:06;14.20;;;10.95;;
74926;SDS011;63488;48.092;-1.640;2023-02-15T15:34:40;12.43;;;9.20;;
74926;SDS011;63488;48.092;-1.640;2023-02-15T15:37:16;14.27;;;9.43;;
74926;SDS011;63488;48.092;-1.640;2023-02-15T15:48:37;13.95;;;9.40;;
74926;SDS011;63488;48.092;-1.640;2023-02-15T15:51:18;16.33;;;10.82;;
74926;SDS011;63488;48.092;-1.640;2023-02-15T15:53:45;13.60;;;9.00;;
74926;SDS011;63488;48.092;-1.640;2023-02-15T15:56:15;22.08;;;9.50;;
74926;SDS011;63488;48.092;-1.640;2023-02-15T15:58:46;12.57;;;8.95;;
74926;SDS011;63488;48.092;-1.640;2023-02-15T16:01:15;12.93;;;10.13;;
74926;SDS011;63488;48.092;-1.640;2023-02-15T16:03:48;15.00;;;10.38;;
74926;SDS011;63488;48.092;-1.640;2023-02-15T16:06:13;13.60;;;10.00;;
74926;SDS011;63488;48.092;-1.640;2023-02-15T16:08:39;14.60;;;10.52;;
74926;SDS011;63488;48.092;-1.640;2023-02-15T16:11:48;14.95;;;9.05;;
74926;SDS011;63488;48.092;-1.640;2023-02-15T16:13:55;12.65;;;9.10;;
74926;SDS011;63488;48.092;-1.640;2023-02-15T16:16:21;13.10;;;9.90;;
74926;SDS011;63488;48.092;-1.640;2023-02-15T16:18:47;12.93;;;10.02;;
74926;SDS011;63488;48.092;-1.640;2023-02-15T16:21:20;14.90;;;11.25;;
74926;SDS011;63488;48.092;-1.640;2023-02-15T16:28:52;13.57;;;9.60;;
74926;SDS011;63488;48.092;-1.640;2023-02-15T16:31:18;16.15;;;10.07;;
74926;SDS011;63488;48.092;-1.640;2023-02-15T16:33:44;17.30;;;10.93;;
74926;SDS011;63488;48.092;-1.640;2023-02-15T16:36:19;19.80;;;12.35;;
74926;SDS011;63488;48.092;-1.640;2023-02-15T16:41:14;14.65;;;10.23;;
74926;SDS011;63488;48.092;-1.640;2023-02-15T16:43:41;14.10;;;9.82;;
74926;SDS011;63488;48.092;-1.640;2023-02-15T16:46:12;18.95;;;11.95;;
74926;SDS011;63488;48.092;-1.640;2023-02-15T16:48:40;16.70;;;11.82;;
74926;SDS011;63488;48.092;-1.640;2023-02-15T16:51:06;21.33;;;11.40;;
74926;SDS011;63488;48.092;-1.640;2023-02-15T16:53:41;17.42;;;11.35;;
74926;SDS011;63488;48.092;-1.640;2023-02-15T16:56:11;22.50;;;11.32;;
74926;SDS011;63488;48.092;-1.640;2023-02-15T16:58:38;16.13;;;11.60;;
74926;SDS011;63488;48.092;-1.640;2023-02-15T17:01:05;16.35;;;11.57;;
74926;SDS011;63488;48.092;-1.640;2023-02-15T17:03:31;15.82;;;11.70;;
74926;SDS011;63488;48.092;-1.640;2023-02-15T17:05:58;17.58;;;11.77;;
74926;SDS011;63488;48.092;-1.640;2023-02-15T17:08:29;18.17;;;12.02;;